sensor_id;sensor_type;location;lat;lon;timestamp;P1;durP1;ratioP1;P2;durP2;ratioP2
549;SDS011;20066;48.764;9.176;2023-07-08T00:00:20;15.70;;;7.87;;
549;SDS011;20066;48.764;9.176;2023-07-08T00:02:49;19.43;;;7.67;;
549;SDS011;20066;48.764;9.176;2023-07-08T00:05:18;12.57;;;7.23;;
549;SDS011;20066;48.764;9.176;2023-07-08T00:07:48;16.40;;;7.60;;
549;SDS011;20066;48.764;9.176;2023-07-08T00:10:17;15.50;;;7.90;;
549;SDS011;20066;48.764;9.176;2023-07-08T00:12:48;14.43;;;7.60;;
549;SDS011;20066;48.764;9.176;2023-07-08T00:15:17;12.53;;;7.13;;
549;SDS011;20066;48.764;9.176;2023-07-08T00:17:45;13.10;;;7.43;;
549;SDS011;20066;48.764;9.176;2023-07-08T00:20:14;14.23;;;8.03;;
549;SDS011;20066;48.764;9.176;2023-07-08T00:22:45;18.03;;;7.33;;
549;SDS011;20066;48.764;9.176;2023-07-08T00:25:17;14.50;;;7.90;;
549;SDS011;20066;48.764;9.176;2023-07-08T00:27:46;14.60;;;8.03;;
549;SDS011;20066;48.764;9.176;2023-07-08T00:30:19;13.47;;;7.70;;
549;SDS011;20066;48.764;9.176;2023-07-08T00:32:49;13.70;;;7.20;;
549;SDS011;20066;48.764;9.176;2023-07-08T00:35:21;14.70;;;7.43;;
549;SDS011;20066;48.764;9.176;2023-07-08T00:37:51;12.90;;;7.40;;
549;SDS011;20066;48.764;9.176;2023-07-08T00:40:21;12.87;;;7.10;;
549;SDS011;20066;48.764;9.176;2023-07-08T00:42:51;13.23;;;7.50;;
549;SDS011;20066;48.764;9.176;2023-07-08T00:45:32;14.00;;;7.10;;
549;SDS011;20066;48.764;9.176;2023-07-08T00:48:23;14.33;;;8.00;;
549;SDS011;20066;48.764;9.176;2023-07-08T00:50:55;17.57;;;7.43;;
549;SDS011;20066;48.764;9.176;2023-07-08T00:53:24;12.93;;;7.27;;
549;SDS011;20066;48.764;9.176;2023-07-08T00:55:57;15.33;;;7.87;;
549;SDS011;20066;48.764;9.176;2023-07-08T00:58:31;12.60;;;7.40;;
549;SDS011;20066;48.764;9.176;2023-07-08T01:01:02;14.17;;;7.80;;
549;SDS011;20066;48.764;9.176;2023-07-08T01:03:33;11.53;;;7.07;;
549;SDS011;20066;48.764;9.176;2023-07-08T01:06:15;14.13;;;7.97;;
549;SDS011;20066;48.764;9.176;2023-07-08T01:08:44;14.50;;;7.60;;
549;SDS011;20066;48.764;9.176;2023-07-08T01:11:14;14.27;;;7.87;;
549;SDS011;20066;48.764;9.176;2023-07-08T01:13:42;11.50;;;7.43;;
549;SDS011;20066;48.764;9.176;2023-07-08T01:16:12;16.20;;;7.80;;
549;SDS011;20066;48.764;9.176;2023-07-08T01:18:40;14.40;;;7.50;;
549;SDS011;20066;48.764;9.176;2023-07-08T01:23:58;16.57;;;7.70;;
549;SDS011;20066;48.764;9.176;2023-07-08T01:26:27;16.10;;;7.90;;
549;SDS011;20066;48.764;9.176;2023-07-08T01:28:57;13.50;;;7.47;;
549;SDS011;20066;48.764;9.176;2023-07-08T01:31:25;13.97;;;7.50;;
549;SDS011;20066;48.764;9.176;2023-07-08T01:33:53;17.93;;;7.87;;
549;SDS011;20066;48.764;9.176;2023-07-08T01:36:21;12.97;;;7.40;;
549;SDS011;20066;48.764;9.176;2023-07-08T01:38:51;13.77;;;7.93;;
549;SDS011;20066;48.764;9.176;2023-07-08T01:41:21;15.67;;;8.20;;
549;SDS011;20066;48.764;9.176;2023-07-08T01:43:48;13.00;;;7.00;;
549;SDS011;20066;48.764;9.176;2023-07-08T01:46:18;16.97;;;8.43;;
549;SDS011;20066;48.764;9.176;2023-07-08T01:48:50;12.80;;;7.33;;
549;SDS011;20066;48.764;9.176;2023-07-08T01:51:21;16.80;;;8.40;;
549;SDS011;20066;48.764;9.176;2023-07-08T01:53:50;15.43;;;8.17;;
549;SDS011;20066;48.764;9.176;2023-07-08T01:56:18;14.87;;;8.20;;
549;SDS011;20066;48.764;9.176;2023-07-08T01:58:47;13.73;;;7.50;;
549;SDS011;20066;48.764;9.176;2023-07-08T02:01:15;15.07;;;7.60;;
549;SDS011;20066;48.764;9.176;2023-07-08T02:03:43;17.43;;;8.40;;
549;SDS011;20066;48.764;9.176;2023-07-08T02:06:12;15.83;;;8.23;;
549;SDS011;20066;48.764;9.176;2023-07-08T02:08:40;13.87;;;7.70;;
549;SDS011;20066;48.764;9.176;2023-07-08T02:11:08;12.57;;;7.57;;
549;SDS011;20066;48.764;9.176;2023-07-08T02:13:36;12.73;;;7.77;;
549;SDS011;20066;48.764;9.176;2023-07-08T02:16:07;17.23;;;8.07;;
549;SDS011;20066;48.764;9.176;2023-07-08T02:18:35;14.23;;;7.90;;
549;SDS011;20066;48.764;9.176;2023-07-08T02:21:03;18.53;;;8.00;;
549;SDS011;20066;48.764;9.176;2023-07-08T02:23:32;13.93;;;7.50;;
549;SDS011;20066;48.764;9.176;2023-07-08T02:26:00;13.50;;;7.43;;
549;SDS011;20066;48.764;9.176;2023-07-08T02:28:27;12.20;;;7.77;;
549;SDS011;20066;48.764;9.176;2023-07-08T02:30:55;12.53;;;7.47;;
549;SDS011;20066;48.764;9.176;2023-07-08T02:33:25;15.73;;;8.13;;
549;SDS011;20066;48.764;9.176;2023-07-08T02:35:59;15.23;;;7.80;;
549;SDS011;20066;48.764;9.176;2023-07-08T02:38:28;13.37;;;7.80;;
549;SDS011;20066;48.764;9.176;2023-07-08T02:40:57;11.67;;;7.10;;
549;SDS011;20066;48.764;9.176;2023-07-08T02:43:26;13.73;;;7.03;;
549;SDS011;20066;48.764;9.176;2023-07-08T02:45:54;18.90;;;7.73;;
549;SDS011;20066;48.764;9.176;2023-07-08T02:48:22;14.70;;;7.27;;
549;SDS011;20066;48.764;9.176;2023-07-08T02:50:51;13.40;;;7.20;;
549;SDS011;20066;48.764;9.176;2023-07-08T02:53:26;13.80;;;7.73;;
549;SDS011;20066;48.764;9.176;2023-07-08T02:55:54;15.00;;;7.67;;
549;SDS011;20066;48.764;9.176;2023-07-08T02:58:22;13.57;;;7.40;;
549;SDS011;20066;48.764;9.176;2023-07-08T03:00:51;12.70;;;7.80;;
549;SDS011;20066;48.764;9.176;2023-07-08T03:03:19;13.87;;;7.10;;
549;SDS011;20066;48.764;9.176;2023-07-08T03:05:54;17.03;;;7.70;;
549;SDS011;20066;48.764;9.176;2023-07-08T03:08:23;16.63;;;7.90;;
549;SDS011;20066;48.764;9.176;2023-07-08T03:10:54;16.10;;;7.97;;
549;SDS011;20066;48.764;9.176;2023-07-08T03:13:24;12.87;;;7.40;;
549;SDS011;20066;48.764;9.176;2023-07-08T03:15:53;16.33;;;7.37;;
549;SDS011;20066;48.764;9.176;2023-07-08T03:18:22;14.90;;;8.57;;
549;SDS011;20066;48.764;9.176;2023-07-08T03:20:52;15.23;;;7.53;;
549;SDS011;20066;48.764;9.176;2023-07-08T03:23:23;15.90;;;8.13;;
549;SDS011;20066;48.764;9.176;2023-07-08T03:25:51;14.23;;;7.93;;
549;SDS011;20066;48.764;9.176;2023-07-08T03:28:20;19.97;;;8.07;;
549;SDS011;20066;48.764;9.176;2023-07-08T03:30:51;11.33;;;6.90;;
549;SDS011;20066;48.764;9.176;2023-07-08T03:33:20;15.27;;;8.37;;
549;SDS011;20066;48.764;9.176;2023-07-08T03:35:48;14.07;;;7.73;;
549;SDS011;20066;48.764;9.176;2023-07-08T03:38:17;15.63;;;8.00;;
549;SDS011;20066;48.764;9.176;2023-07-08T03:40:45;11.83;;;6.90;;
549;SDS011;20066;48.764;9.176;2023-07-08T03:43:13;14.07;;;7.70;;
549;SDS011;20066;48.764;9.176;2023-07-08T03:45:41;13.67;;;7.47;;
549;SDS011;20066;48.764;9.176;2023-07-08T03:48:09;13.43;;;8.03;;
549;SDS011;20066;48.764;9.176;2023-07-08T03:50:37;12.73;;;7.83;;
549;SDS011;20066;48.764;9.176;2023-07-08T03:53:06;15.27;;;8.00;;
549;SDS011;20066;48.764;9.176;2023-07-08T03:55:37;19.20;;;8.60;;
549;SDS011;20066;48.764;9.176;2023-07-08T03:58:05;12.80;;;7.70;;
549;SDS011;20066;48.764;9.176;2023-07-08T04:00:32;15.30;;;8.27;;
549;SDS011;20066;48.764;9.176;2023-07-08T04:03:00;11.87;;;6.83;;
549;SDS011;20066;48.764;9.176;2023-07-08T04:05:28;13.20;;;7.83;;
549;SDS011;20066;48.764;9.176;2023-07-08T04:07:56;12.70;;;7.23;;
549;SDS011;20066;48.764;9.176;2023-07-08T04:10:23;17.73;;;7.63;;
549;SDS011;20066;48.764;9.176;2023-07-08T04:12:53;14.70;;;8.10;;
549;SDS011;20066;48.764;9.176;2023-07-08T04:15:21;13.53;;;7.40;;
549;SDS011;20066;48.764;9.176;2023-07-08T04:17:51;14.17;;;7.60;;
549;SDS011;20066;48.764;9.176;2023-07-08T04:20:22;14.00;;;7.67;;
549;SDS011;20066;48.764;9.176;2023-07-08T04:22:50;12.03;;;7.00;;
549;SDS011;20066;48.764;9.176;2023-07-08T04:25:18;12.63;;;6.97;;
549;SDS011;20066;48.764;9.176;2023-07-08T04:27:46;15.20;;;7.47;;
549;SDS011;20066;48.764;9.176;2023-07-08T04:30:20;15.63;;;7.50;;
549;SDS011;20066;48.764;9.176;2023-07-08T04:32:50;14.00;;;6.83;;
549;SDS011;20066;48.764;9.176;2023-07-08T04:35:19;13.50;;;8.03;;
549;SDS011;20066;48.764;9.176;2023-07-08T04:37:46;13.63;;;7.80;;
549;SDS011;20066;48.764;9.176;2023-07-08T04:40:16;15.33;;;8.03;;
549;SDS011;20066;48.764;9.176;2023-07-08T04:42:46;13.43;;;7.77;;
549;SDS011;20066;48.764;9.176;2023-07-08T04:45:15;18.40;;;7.33;;
549;SDS011;20066;48.764;9.176;2023-07-08T04:47:45;13.90;;;7.57;;
549;SDS011;20066;48.764;9.176;2023-07-08T04:50:19;16.73;;;7.67;;
549;SDS011;20066;48.764;9.176;2023-07-08T04:52:47;12.27;;;7.20;;
549;SDS011;20066;48.764;9.176;2023-07-08T04:55:16;16.47;;;7.50;;
549;SDS011;20066;48.764;9.176;2023-07-08T04:57:44;15.57;;;8.37;;
549;SDS011;20066;48.764;9.176;2023-07-08T05:00:13;14.93;;;8.07;;
549;SDS011;20066;48.764;9.176;2023-07-08T05:02:43;14.00;;;7.87;;
549;SDS011;20066;48.764;9.176;2023-07-08T05:05:13;12.40;;;7.70;;
549;SDS011;20066;48.764;9.176;2023-07-08T05:07:40;13.93;;;8.30;;
549;SDS011;20066;48.764;9.176;2023-07-08T05:10:09;15.50;;;8.30;;
549;SDS011;20066;48.764;9.176;2023-07-08T05:12:37;15.17;;;8.90;;
549;SDS011;20066;48.764;9.176;2023-07-08T05:15:05;16.50;;;7.50;;
549;SDS011;20066;48.764;9.176;2023-07-08T05:17:34;15.10;;;9.00;;
549;SDS011;20066;48.764;9.176;2023-07-08T05:20:05;20.63;;;8.40;;
549;SDS011;20066;48.764;9.176;2023-07-08T05:22:36;15.07;;;7.80;;
549;SDS011;20066;48.764;9.176;2023-07-08T05:25:04;14.37;;;8.10;;
549;SDS011;20066;48.764;9.176;2023-07-08T05:27:33;15.73;;;8.10;;
549;SDS011;20066;48.764;9.176;2023-07-08T05:30:01;13.77;;;7.53;;
549;SDS011;20066;48.764;9.176;2023-07-08T05:32:29;15.47;;;8.47;;
549;SDS011;20066;48.764;9.176;2023-07-08T05:34:57;14.47;;;7.67;;
549;SDS011;20066;48.764;9.176;2023-07-08T05:37:25;14.63;;;7.60;;
549;SDS011;20066;48.764;9.176;2023-07-08T05:39:56;21.20;;;7.27;;
549;SDS011;20066;48.764;9.176;2023-07-08T05:42:26;12.70;;;7.63;;
549;SDS011;20066;48.764;9.176;2023-07-08T05:44:55;14.47;;;7.80;;
549;SDS011;20066;48.764;9.176;2023-07-08T05:47:22;11.93;;;7.57;;
549;SDS011;20066;48.764;9.176;2023-07-08T05:49:50;11.83;;;6.73;;
549;SDS011;20066;48.764;9.176;2023-07-08T05:52:18;12.27;;;7.53;;
549;SDS011;20066;48.764;9.176;2023-07-08T05:54:46;17.23;;;8.10;;
549;SDS011;20066;48.764;9.176;2023-07-08T05:57:15;15.27;;;7.60;;
549;SDS011;20066;48.764;9.176;2023-07-08T05:59:44;12.27;;;7.77;;
549;SDS011;20066;48.764;9.176;2023-07-08T06:02:12;14.77;;;7.50;;
549;SDS011;20066;48.764;9.176;2023-07-08T06:04:40;13.37;;;7.37;;
549;SDS011;20066;48.764;9.176;2023-07-08T06:07:08;15.07;;;7.53;;
549;SDS011;20066;48.764;9.176;2023-07-08T06:09:36;14.33;;;7.87;;
549;SDS011;20066;48.764;9.176;2023-07-08T06:12:04;15.97;;;8.20;;
549;SDS011;20066;48.764;9.176;2023-07-08T06:14:33;15.03;;;7.67;;
549;SDS011;20066;48.764;9.176;2023-07-08T06:17:01;11.10;;;6.80;;
549;SDS011;20066;48.764;9.176;2023-07-08T06:19:29;13.53;;;7.67;;
549;SDS011;20066;48.764;9.176;2023-07-08T06:21:57;16.33;;;7.57;;
549;SDS011;20066;48.764;9.176;2023-07-08T06:24:45;12.83;;;6.60;;
549;SDS011;20066;48.764;9.176;2023-07-08T06:27:13;15.70;;;7.57;;
549;SDS011;20066;48.764;9.176;2023-07-08T06:29:44;15.50;;;7.53;;
549;SDS011;20066;48.764;9.176;2023-07-08T06:32:12;14.83;;;7.00;;
549;SDS011;20066;48.764;9.176;2023-07-08T06:34:40;15.50;;;6.50;;
549;SDS011;20066;48.764;9.176;2023-07-08T06:37:08;13.70;;;6.57;;
549;SDS011;20066;48.764;9.176;2023-07-08T06:39:36;11.57;;;6.37;;
549;SDS011;20066;48.764;9.176;2023-07-08T06:42:07;16.03;;;6.63;;
549;SDS011;20066;48.764;9.176;2023-07-08T06:44:35;13.17;;;7.20;;
549;SDS011;20066;48.764;9.176;2023-07-08T06:47:05;15.20;;;6.97;;
549;SDS011;20066;48.764;9.176;2023-07-08T06:49:34;17.27;;;7.30;;
549;SDS011;20066;48.764;9.176;2023-07-08T06:52:02;12.77;;;6.57;;
549;SDS011;20066;48.764;9.176;2023-07-08T06:54:30;15.97;;;6.33;;
549;SDS011;20066;48.764;9.176;2023-07-08T06:56:58;12.33;;;5.80;;
549;SDS011;20066;48.764;9.176;2023-07-08T06:59:26;13.53;;;6.20;;
549;SDS011;20066;48.764;9.176;2023-07-08T07:01:54;14.90;;;5.90;;
549;SDS011;20066;48.764;9.176;2023-07-08T07:04:25;13.67;;;6.37;;
549;SDS011;20066;48.764;9.176;2023-07-08T07:06:54;15.73;;;5.70;;
549;SDS011;20066;48.764;9.176;2023-07-08T07:09:22;13.43;;;6.30;;
549;SDS011;20066;48.764;9.176;2023-07-08T07:11:50;10.00;;;5.40;;
549;SDS011;20066;48.764;9.176;2023-07-08T07:14:18;9.70;;;5.30;;
549;SDS011;20066;48.764;9.176;2023-07-08T07:16:49;12.17;;;5.20;;
549;SDS011;20066;48.764;9.176;2023-07-08T07:19:34;12.40;;;6.20;;
549;SDS011;20066;48.764;9.176;2023-07-08T07:22:02;13.43;;;5.27;;
549;SDS011;20066;48.764;9.176;2023-07-08T07:24:31;11.70;;;5.87;;
549;SDS011;20066;48.764;9.176;2023-07-08T07:26:59;9.93;;;4.80;;
549;SDS011;20066;48.764;9.176;2023-07-08T07:29:28;12.97;;;5.80;;
549;SDS011;20066;48.764;9.176;2023-07-08T07:32:05;10.20;;;5.23;;
549;SDS011;20066;48.764;9.176;2023-07-08T07:34:36;14.63;;;5.80;;
549;SDS011;20066;48.764;9.176;2023-07-08T07:37:04;15.80;;;6.07;;
549;SDS011;20066;48.764;9.176;2023-07-08T07:39:33;12.63;;;6.40;;
549;SDS011;20066;48.764;9.176;2023-07-08T07:42:01;8.40;;;5.30;;
549;SDS011;20066;48.764;9.176;2023-07-08T07:44:30;8.97;;;5.40;;
549;SDS011;20066;48.764;9.176;2023-07-08T07:46:58;10.73;;;5.07;;
549;SDS011;20066;48.764;9.176;2023-07-08T07:49:26;20.07;;;6.00;;
549;SDS011;20066;48.764;9.176;2023-07-08T07:51:55;17.07;;;5.87;;
549;SDS011;20066;48.764;9.176;2023-07-08T07:54:23;11.57;;;5.23;;
549;SDS011;20066;48.764;9.176;2023-07-08T07:56:51;16.43;;;5.50;;
549;SDS011;20066;48.764;9.176;2023-07-08T07:59:19;13.07;;;5.30;;
549;SDS011;20066;48.764;9.176;2023-07-08T08:01:47;9.03;;;5.00;;
549;SDS011;20066;48.764;9.176;2023-07-08T08:04:16;12.00;;;4.57;;
549;SDS011;20066;48.764;9.176;2023-07-08T08:06:43;9.10;;;4.90;;
549;SDS011;20066;48.764;9.176;2023-07-08T08:09:13;10.30;;;5.13;;
549;SDS011;20066;48.764;9.176;2023-07-08T08:11:41;8.17;;;4.50;;
549;SDS011;20066;48.764;9.176;2023-07-08T08:14:09;7.20;;;4.23;;
549;SDS011;20066;48.764;9.176;2023-07-08T08:16:37;8.57;;;4.17;;
549;SDS011;20066;48.764;9.176;2023-07-08T08:19:05;8.30;;;4.80;;
549;SDS011;20066;48.764;9.176;2023-07-08T08:21:34;9.73;;;4.90;;
549;SDS011;20066;48.764;9.176;2023-07-08T08:24:02;8.63;;;3.90;;
549;SDS011;20066;48.764;9.176;2023-07-08T08:26:32;9.60;;;4.27;;
549;SDS011;20066;48.764;9.176;2023-07-08T08:29:00;9.73;;;3.97;;
549;SDS011;20066;48.764;9.176;2023-07-08T08:31:28;10.90;;;4.90;;
549;SDS011;20066;48.764;9.176;2023-07-08T08:33:57;9.50;;;3.70;;
549;SDS011;20066;48.764;9.176;2023-07-08T08:36:27;11.10;;;4.70;;
549;SDS011;20066;48.764;9.176;2023-07-08T08:38:55;8.13;;;4.00;;
549;SDS011;20066;48.764;9.176;2023-07-08T08:41:27;13.23;;;4.30;;
549;SDS011;20066;48.764;9.176;2023-07-08T08:43:59;7.30;;;3.70;;
549;SDS011;20066;48.764;9.176;2023-07-08T08:46:31;9.23;;;4.37;;
549;SDS011;20066;48.764;9.176;2023-07-08T08:49:08;7.17;;;3.70;;
549;SDS011;20066;48.764;9.176;2023-07-08T08:51:45;8.93;;;3.80;;
549;SDS011;20066;48.764;9.176;2023-07-08T08:54:14;8.90;;;4.50;;
549;SDS011;20066;48.764;9.176;2023-07-08T08:56:44;8.37;;;3.70;;
549;SDS011;20066;48.764;9.176;2023-07-08T08:59:22;8.87;;;3.20;;
549;SDS011;20066;48.764;9.176;2023-07-08T09:01:58;7.83;;;3.67;;
549;SDS011;20066;48.764;9.176;2023-07-08T09:04:29;8.07;;;4.00;;
549;SDS011;20066;48.764;9.176;2023-07-08T09:07:02;6.97;;;3.60;;
549;SDS011;20066;48.764;9.176;2023-07-08T09:09:38;5.70;;;3.60;;
549;SDS011;20066;48.764;9.176;2023-07-08T09:12:15;8.73;;;3.80;;
549;SDS011;20066;48.764;9.176;2023-07-08T09:14:46;6.13;;;3.20;;
549;SDS011;20066;48.764;9.176;2023-07-08T09:17:16;5.90;;;3.60;;
549;SDS011;20066;48.764;9.176;2023-07-08T09:19:52;8.93;;;3.67;;
549;SDS011;20066;48.764;9.176;2023-07-08T09:22:28;5.30;;;3.10;;
549;SDS011;20066;48.764;9.176;2023-07-08T09:25:03;7.10;;;3.33;;
549;SDS011;20066;48.764;9.176;2023-07-08T09:27:38;10.33;;;3.40;;
549;SDS011;20066;48.764;9.176;2023-07-08T09:30:09;22.97;;;4.17;;
549;SDS011;20066;48.764;9.176;2023-07-08T09:32:41;8.80;;;3.10;;
549;SDS011;20066;48.764;9.176;2023-07-08T09:35:11;9.33;;;4.17;;
549;SDS011;20066;48.764;9.176;2023-07-08T09:37:46;7.33;;;3.43;;
549;SDS011;20066;48.764;9.176;2023-07-08T09:40:16;5.60;;;3.53;;
549;SDS011;20066;48.764;9.176;2023-07-08T09:42:46;5.40;;;3.50;;
549;SDS011;20066;48.764;9.176;2023-07-08T09:45:19;7.70;;;3.27;;
549;SDS011;20066;48.764;9.176;2023-07-08T09:47:51;5.50;;;3.50;;
549;SDS011;20066;48.764;9.176;2023-07-08T09:50:21;7.27;;;4.03;;
549;SDS011;20066;48.764;9.176;2023-07-08T09:52:53;9.33;;;3.73;;
549;SDS011;20066;48.764;9.176;2023-07-08T09:55:24;8.23;;;3.20;;
549;SDS011;20066;48.764;9.176;2023-07-08T09:57:52;8.27;;;3.60;;
549;SDS011;20066;48.764;9.176;2023-07-08T10:00:27;7.63;;;3.40;;
549;SDS011;20066;48.764;9.176;2023-07-08T10:03:02;6.57;;;3.77;;
549;SDS011;20066;48.764;9.176;2023-07-08T10:05:34;7.13;;;3.53;;
549;SDS011;20066;48.764;9.176;2023-07-08T10:08:10;9.83;;;3.00;;
549;SDS011;20066;48.764;9.176;2023-07-08T10:10:42;7.57;;;3.83;;
549;SDS011;20066;48.764;9.176;2023-07-08T10:13:14;8.63;;;3.47;;
549;SDS011;20066;48.764;9.176;2023-07-08T10:15:47;7.17;;;3.93;;
549;SDS011;20066;48.764;9.176;2023-07-08T10:18:21;6.03;;;3.77;;
549;SDS011;20066;48.764;9.176;2023-07-08T10:20:55;12.30;;;4.43;;
549;SDS011;20066;48.764;9.176;2023-07-08T10:23:38;9.23;;;5.10;;
549;SDS011;20066;48.764;9.176;2023-07-08T10:26:18;8.97;;;4.93;;
549;SDS011;20066;48.764;9.176;2023-07-08T10:28:54;14.43;;;5.87;;
549;SDS011;20066;48.764;9.176;2023-07-08T10:31:35;9.60;;;5.27;;
549;SDS011;20066;48.764;9.176;2023-07-08T10:34:16;16.33;;;5.33;;
549;SDS011;20066;48.764;9.176;2023-07-08T10:36:55;9.80;;;5.00;;
549;SDS011;20066;48.764;9.176;2023-07-08T10:39:37;18.53;;;5.30;;
549;SDS011;20066;48.764;9.176;2023-07-08T10:42:25;7.73;;;4.60;;
549;SDS011;20066;48.764;9.176;2023-07-08T10:45:06;7.43;;;4.03;;
549;SDS011;20066;48.764;9.176;2023-07-08T10:47:45;11.83;;;3.97;;
549;SDS011;20066;48.764;9.176;2023-07-08T10:50:26;7.37;;;3.97;;
549;SDS011;20066;48.764;9.176;2023-07-08T10:53:14;6.73;;;3.57;;
549;SDS011;20066;48.764;9.176;2023-07-08T10:56:05;6.60;;;3.60;;
549;SDS011;20066;48.764;9.176;2023-07-08T10:58:52;6.27;;;3.20;;
549;SDS011;20066;48.764;9.176;2023-07-08T11:01:50;8.10;;;3.87;;
549;SDS011;20066;48.764;9.176;2023-07-08T11:04:42;6.43;;;3.80;;
549;SDS011;20066;48.764;9.176;2023-07-08T11:07:30;6.97;;;3.90;;
549;SDS011;20066;48.764;9.176;2023-07-08T11:10:05;9.90;;;3.77;;
549;SDS011;20066;48.764;9.176;2023-07-08T11:12:38;7.47;;;3.77;;
549;SDS011;20066;48.764;9.176;2023-07-08T11:15:15;6.93;;;4.00;;
549;SDS011;20066;48.764;9.176;2023-07-08T11:17:48;7.50;;;3.90;;
549;SDS011;20066;48.764;9.176;2023-07-08T11:20:21;12.27;;;3.47;;
549;SDS011;20066;48.764;9.176;2023-07-08T11:22:54;9.03;;;3.90;;
549;SDS011;20066;48.764;9.176;2023-07-08T11:25:27;8.30;;;4.50;;
549;SDS011;20066;48.764;9.176;2023-07-08T11:27:57;10.07;;;4.30;;
549;SDS011;20066;48.764;9.176;2023-07-08T11:30:29;10.20;;;4.00;;
549;SDS011;20066;48.764;9.176;2023-07-08T11:33:02;9.80;;;3.70;;
549;SDS011;20066;48.764;9.176;2023-07-08T11:35:36;6.63;;;3.70;;
549;SDS011;20066;48.764;9.176;2023-07-08T11:38:09;6.53;;;3.80;;
549;SDS011;20066;48.764;9.176;2023-07-08T11:40:49;7.37;;;3.90;;
549;SDS011;20066;48.764;9.176;2023-07-08T11:43:37;8.07;;;3.90;;
549;SDS011;20066;48.764;9.176;2023-07-08T11:46:12;5.90;;;3.87;;
549;SDS011;20066;48.764;9.176;2023-07-08T11:48:46;10.90;;;3.70;;
549;SDS011;20066;48.764;9.176;2023-07-08T11:51:18;9.87;;;3.77;;
549;SDS011;20066;48.764;9.176;2023-07-08T11:53:49;6.90;;;3.53;;
549;SDS011;20066;48.764;9.176;2023-07-08T11:56:25;8.90;;;4.33;;
549;SDS011;20066;48.764;9.176;2023-07-08T11:59:04;8.67;;;3.73;;
549;SDS011;20066;48.764;9.176;2023-07-08T12:01:41;10.20;;;3.70;;
549;SDS011;20066;48.764;9.176;2023-07-08T12:04:25;7.00;;;3.23;;
549;SDS011;20066;48.764;9.176;2023-07-08T12:07:11;10.43;;;3.70;;
549;SDS011;20066;48.764;9.176;2023-07-08T12:09:47;8.83;;;3.70;;
549;SDS011;20066;48.764;9.176;2023-07-08T12:12:27;4.97;;;2.80;;
549;SDS011;20066;48.764;9.176;2023-07-08T12:15:00;6.00;;;3.30;;
549;SDS011;20066;48.764;9.176;2023-07-08T12:17:37;7.50;;;3.00;;
549;SDS011;20066;48.764;9.176;2023-07-08T12:20:07;9.07;;;3.43;;
549;SDS011;20066;48.764;9.176;2023-07-08T12:22:46;8.37;;;3.33;;
549;SDS011;20066;48.764;9.176;2023-07-08T12:25:15;4.83;;;2.80;;
549;SDS011;20066;48.764;9.176;2023-07-08T12:27:45;6.77;;;3.30;;
549;SDS011;20066;48.764;9.176;2023-07-08T12:30:17;6.40;;;3.07;;
549;SDS011;20066;48.764;9.176;2023-07-08T12:32:45;7.17;;;2.87;;
549;SDS011;20066;48.764;9.176;2023-07-08T12:35:20;5.50;;;2.90;;
549;SDS011;20066;48.764;9.176;2023-07-08T12:37:53;4.50;;;2.63;;
549;SDS011;20066;48.764;9.176;2023-07-08T12:40:23;6.80;;;3.10;;
549;SDS011;20066;48.764;9.176;2023-07-08T12:42:54;8.87;;;3.37;;
549;SDS011;20066;48.764;9.176;2023-07-08T12:45:23;7.53;;;2.97;;
549;SDS011;20066;48.764;9.176;2023-07-08T12:47:52;7.23;;;3.10;;
549;SDS011;20066;48.764;9.176;2023-07-08T12:50:22;8.80;;;3.37;;
549;SDS011;20066;48.764;9.176;2023-07-08T12:52:50;8.27;;;4.27;;
549;SDS011;20066;48.764;9.176;2023-07-08T12:55:19;6.93;;;3.67;;
549;SDS011;20066;48.764;9.176;2023-07-08T12:57:49;8.03;;;3.60;;
549;SDS011;20066;48.764;9.176;2023-07-08T13:00:21;8.00;;;3.00;;
549;SDS011;20066;48.764;9.176;2023-07-08T13:03:01;7.97;;;3.00;;
549;SDS011;20066;48.764;9.176;2023-07-08T13:05:33;6.30;;;3.20;;
549;SDS011;20066;48.764;9.176;2023-07-08T13:08:03;5.90;;;2.93;;
549;SDS011;20066;48.764;9.176;2023-07-08T13:10:33;6.17;;;4.13;;
549;SDS011;20066;48.764;9.176;2023-07-08T13:13:03;4.40;;;2.70;;
549;SDS011;20066;48.764;9.176;2023-07-08T13:15:35;10.73;;;3.90;;
549;SDS011;20066;48.764;9.176;2023-07-08T13:18:08;5.33;;;3.40;;
549;SDS011;20066;48.764;9.176;2023-07-08T13:20:40;8.00;;;3.33;;
549;SDS011;20066;48.764;9.176;2023-07-08T13:23:09;6.07;;;3.00;;
549;SDS011;20066;48.764;9.176;2023-07-08T13:25:39;8.10;;;3.20;;
549;SDS011;20066;48.764;9.176;2023-07-08T13:28:17;7.00;;;3.30;;
549;SDS011;20066;48.764;9.176;2023-07-08T13:30:50;7.23;;;3.37;;
549;SDS011;20066;48.764;9.176;2023-07-08T13:33:20;7.03;;;3.20;;
549;SDS011;20066;48.764;9.176;2023-07-08T13:35:48;8.70;;;2.70;;
549;SDS011;20066;48.764;9.176;2023-07-08T13:38:19;5.13;;;3.50;;
549;SDS011;20066;48.764;9.176;2023-07-08T13:40:53;6.40;;;3.10;;
549;SDS011;20066;48.764;9.176;2023-07-08T13:43:23;5.40;;;2.77;;
549;SDS011;20066;48.764;9.176;2023-07-08T13:45:52;5.10;;;3.77;;
549;SDS011;20066;48.764;9.176;2023-07-08T13:48:22;5.77;;;3.20;;
549;SDS011;20066;48.764;9.176;2023-07-08T13:50:56;7.20;;;3.50;;
549;SDS011;20066;48.764;9.176;2023-07-08T13:53:44;5.67;;;3.30;;
549;SDS011;20066;48.764;9.176;2023-07-08T13:56:21;7.07;;;2.80;;
549;SDS011;20066;48.764;9.176;2023-07-08T13:58:53;5.10;;;2.60;;
549;SDS011;20066;48.764;9.176;2023-07-08T14:01:29;6.87;;;3.07;;
549;SDS011;20066;48.764;9.176;2023-07-08T14:03:58;5.87;;;3.03;;
549;SDS011;20066;48.764;9.176;2023-07-08T14:06:30;4.60;;;3.20;;
549;SDS011;20066;48.764;9.176;2023-07-08T14:09:07;4.60;;;2.60;;
549;SDS011;20066;48.764;9.176;2023-07-08T14:11:41;5.43;;;2.70;;
549;SDS011;20066;48.764;9.176;2023-07-08T14:14:09;5.37;;;2.70;;
549;SDS011;20066;48.764;9.176;2023-07-08T14:16:38;4.53;;;3.30;;
549;SDS011;20066;48.764;9.176;2023-07-08T14:19:10;6.10;;;3.80;;
549;SDS011;20066;48.764;9.176;2023-07-08T14:21:41;6.10;;;3.07;;
549;SDS011;20066;48.764;9.176;2023-07-08T14:24:10;6.70;;;2.90;;
549;SDS011;20066;48.764;9.176;2023-07-08T14:26:42;4.97;;;3.00;;
549;SDS011;20066;48.764;9.176;2023-07-08T14:29:11;5.97;;;3.10;;
549;SDS011;20066;48.764;9.176;2023-07-08T14:31:40;5.90;;;2.80;;
549;SDS011;20066;48.764;9.176;2023-07-08T14:34:10;4.50;;;2.50;;
549;SDS011;20066;48.764;9.176;2023-07-08T14:36:40;5.07;;;3.07;;
549;SDS011;20066;48.764;9.176;2023-07-08T14:39:09;5.57;;;2.90;;
549;SDS011;20066;48.764;9.176;2023-07-08T14:41:40;5.30;;;2.57;;
549;SDS011;20066;48.764;9.176;2023-07-08T14:44:12;4.70;;;2.73;;
549;SDS011;20066;48.764;9.176;2023-07-08T14:46:47;5.70;;;2.90;;
549;SDS011;20066;48.764;9.176;2023-07-08T14:49:17;6.60;;;3.13;;
549;SDS011;20066;48.764;9.176;2023-07-08T14:51:45;5.80;;;2.70;;
549;SDS011;20066;48.764;9.176;2023-07-08T14:54:14;5.90;;;3.20;;
549;SDS011;20066;48.764;9.176;2023-07-08T14:56:42;5.67;;;2.67;;
549;SDS011;20066;48.764;9.176;2023-07-08T14:59:13;7.47;;;3.30;;
549;SDS011;20066;48.764;9.176;2023-07-08T15:01:43;10.13;;;3.50;;
549;SDS011;20066;48.764;9.176;2023-07-08T15:04:12;9.17;;;3.10;;
549;SDS011;20066;48.764;9.176;2023-07-08T15:06:42;5.80;;;2.80;;
549;SDS011;20066;48.764;9.176;2023-07-08T15:09:11;5.20;;;3.00;;
549;SDS011;20066;48.764;9.176;2023-07-08T15:11:40;7.57;;;3.50;;
549;SDS011;20066;48.764;9.176;2023-07-08T15:14:13;4.73;;;2.80;;
549;SDS011;20066;48.764;9.176;2023-07-08T15:16:45;5.30;;;2.67;;
549;SDS011;20066;48.764;9.176;2023-07-08T15:19:13;4.90;;;2.73;;
549;SDS011;20066;48.764;9.176;2023-07-08T15:21:42;5.80;;;3.00;;
549;SDS011;20066;48.764;9.176;2023-07-08T15:24:10;6.17;;;2.80;;
549;SDS011;20066;48.764;9.176;2023-07-08T15:26:39;6.50;;;2.80;;
549;SDS011;20066;48.764;9.176;2023-07-08T15:29:11;6.47;;;2.80;;
549;SDS011;20066;48.764;9.176;2023-07-08T15:31:42;7.27;;;2.83;;
549;SDS011;20066;48.764;9.176;2023-07-08T15:34:11;5.67;;;2.97;;